Airfield :
LOGIN :

Register | Disclaimer

   EN    FR    IT 

 










Legend :    VFR   Marginal VFR   IFR   Intensive IFR   Very Intensive IFR
Visi :
Ceiling :
>= 8 km
>= 3000ft
5 to 8 km
1000 to 3000 ft
1500m to 5 km
500 to 1000 ft
800 to 1500m
200 to 500 ft
< 800m
< 200 ft
Symbols :   Thunderstorms  Fog  Heavy snow  Heavy precipitations  Wind > 20 kt
SIGMETs :     Misc.  Thunderstorms  Icing  Turbulence  Mountain Waves  Volcanic Ashes







- Airport Elevation : 157 ft
- IATA code : LIL
- Download approach charts


LFQQ - Lille Lesquin

CURRENT METAR :
  • 170030Z AUTO 30008KT 9999 -RA FEW045/// SCT078/// OVC110/// ///TCU 15/13 Q1016 BECMG SCT025

EXPIRED METARs :
  • 170000Z AUTO 32005KT 9999 FEW024/// BKN082/// BKN100/// ///TCU 15/14 Q1016 BECMG SCT025
  • 162330Z AUTO 29009KT 9999 -RA FEW020/// SCT040/// BKN074/// ///CB 16/14 Q1016 BECMG SCT025
  • 162300Z AUTO 30005KT 230V330 9999 -RA ///CB 16/15 Q1017 TEMPO 4000 SHRA BECMG BKN040
  • 162230Z AUTO 31008KT 9999 SCT007/// BKN011/// BKN060/// ///CB 17/16 Q1016 TEMPO 4000 SHRA BECMG BKN040
  • 162200Z AUTO 32008KT 9999 3600 TSRA BKN007/// BKN024/// BKN072/// ///CB 17/16 Q1016 TEMPO 4000 SHRA BKN012 OVC040

TAF TAF LFQQ
Valid from the 17 at 00:00 until the 18 at 06:00 UTC


162300Z 1700/1806 30008KT 9999 BKN007
BECMG 1700/1703 SCT025
TEMPO 1803/1806 2000 BR
ATIS : +33 3 20 16 19 54
No reported NOTAMs for that airfield.
1 SIGMET reported for the Paris FIR (LFFF) :
 
Embedded thunderstorms
LFFF SIGMET 1 VALID 170100/170300 LFPW
LFFF PARIS FIR/UIR EMBD TS OBS WI N5030 E00345 - N5015 E00430 - N4900 E00245 - N4900 E00215 - N5030 E00345 TOP FL360 MOV E 10KT NC=



MET'MAP, your aeronautical weather chart ! - Copyright ORBIFLY December 2007 - Disclaimer

ORBIFLY MET'MAP TEAM :

Programming & Development : Alexandra Zaïnal
Concept & Development : Baudouin d'Aumeries
Co-Development & Prog : Marc-Olivier Méhu
Technical & hardware support : Manuel Goepfert

Contact : metmap@orbifly.com




SOURCES & CREDITS :

   NOAA